< < Back
Terminal Aerodrome Forecast


Current Version              Previous Versions:   1  2  3  4  5  6  7  8  9  

Terminal Aerodrome Forecast

795
FTUS44 KOHX 011100
TAFBNA
TAF
KBNA 011120Z 0112/0212 15006KT P6SM SCT050
     FM020100 17003KT P6SM SCT150=

Latest METAR

398
SAUS70 KWBC 020000 RRM
MTRBNA
METAR KBNA 012353Z 00000KT 10SM FEW120 26/13 A2994 RMK AO2 SLP133
T02560133 10311 20256 53002


USA.gov is the U.S. government's official web portal to all federal, state and local government web resources and services.